Flight Track Log - Related Links

Times and Time Zones

All times are in EDT time to prevent confusion due to time zone crossing. See the FDX120 flight status page for this flight to view local times or setup timezone preferences in your user account.

Time Position Orientation Groundspeed Altitude Reporting Facility
EDT Latitude Longitude Course Direction KTS MPH feet Rate Location/Type
Fri 05:18:23 AM 35.0667 -90.0167 270° West 167 192 1,800  Level KMEM
Fri 05:19:12 AM 35.0667 -90.0667 270° West 206 237 3,000 2,053 Climbing KMEM
Fri 05:20:17 AM 35.0667 -90.1667 270° West 285 328 5,700 2,762 Climbing KMEM
Fri 05:21:18 AM 35.1167 -90.2333 313° West 286 329 8,800 2,693 Climbing KMEM
Fri 05:22:24 AM 35.1742 -90.3367 304° West 323 372 11,400 1,905 Climbing Memphis Center
Fri 05:23:24 AM 35.2325 -90.4258 309° West 346 398 12,800 1,900 Climbing Memphis Center
Fri 05:24:24 AM 35.2972 -90.5325 307° West 381 438 15,200 2,250 Climbing Memphis Center
Fri 05:25:24 AM 35.3658 -90.6397 308° West 398 458 17,300 1,757 Climbing Memphis Center
Fri 05:31:07 AM 35.8080 -91.3110 308° West 469 540 27,000 1,532 Climbing FlightAware ADS-B
Fri 05:31:44 AM 35.8500 -91.3770 308° West 469 540 27,000 1,800 Level FlightAware ADS-B
Fri 05:32:17 AM 35.9030 -91.4560 310° West 462 532 29,100 2,609 Climbing FlightAware ADS-B
Fri 05:32:53 AM 35.9510 -91.5300 309° West 462 532 30,000 1,538 Climbing FlightAware ADS-B
Fri 05:33:35 AM 36.0080 -91.6160 309° West 459 528 31,100 1,558 Climbing FlightAware ADS-B
Fri 05:34:10 AM 36.0530 -91.6880 308° West 456 525 32,000 794 Climbing FlightAware ADS-B
Fri 05:34:43 AM 36.0970 -91.7560 309° West 463 533 32,000  Level FlightAware ADS-B
Fri 05:35:20 AM 36.1450 -91.8280 310° West 461 531 32,000  Level FlightAware ADS-B
Fri 05:35:55 AM 36.1940 -91.9040 309° West 461 531 32,000  Level FlightAware ADS-B
Fri 05:36:27 AM 36.2360 -91.9710 308° West 461 531 32,000  Level FlightAware ADS-B
Fri 05:37:03 AM 36.2840 -92.0450 309° West 462 532 32,000  Level FlightAware ADS-B
Fri 05:37:39 AM 36.3310 -92.1180 309° West 462 532 32,000  Level FlightAware ADS-B
Fri 05:38:13 AM 36.3770 -92.1900 308° West 458 527 32,000  Level FlightAware ADS-B
Fri 05:38:58 AM 36.4350 -92.2810 308° West 457 526 32,000  Level FlightAware ADS-B
Fri 05:39:33 AM 36.4810 -92.3560 307° West 457 526 32,000  Level FlightAware ADS-B
Fri 05:40:05 AM 36.5240 -92.4220 309° West 457 526 32,000  Level FlightAware ADS-B
Fri 05:40:41 AM 36.5710 -92.4960 308° West 458 527 32,000  Level FlightAware ADS-B
Fri 05:41:13 AM 36.6140 -92.5630 309° West 461 531 32,000  Level FlightAware ADS-B
Fri 05:41:51 AM 36.6630 -92.6420 308° West 458 527 32,000  Level FlightAware ADS-B
Fri 05:42:25 AM 36.7080 -92.7130 308° West 461 531 32,000  Level FlightAware ADS-B
Fri 05:43:01 AM 36.7550 -92.7890 308° West 462 532 32,000  Level FlightAware ADS-B
Fri 05:43:37 AM 36.8020 -92.8640 308° West 458 527 32,000  Level FlightAware ADS-B
Fri 05:44:13 AM 36.8490 -92.9390 308° West 459 528 32,000  Level FlightAware ADS-B
Fri 05:44:45 AM 36.8900 -93.0040 308° West 459 528 32,000  Level FlightAware ADS-B
Fri 05:45:23 AM 36.9400 -93.0850 308° West 456 525 32,000  Level FlightAware ADS-B
Fri 05:45:59 AM 36.9870 -93.1600 308° West 454 522 32,000  Level FlightAware ADS-B
Fri 05:46:31 AM 37.0280 -93.2270 307° West 454 522 32,000  Level FlightAware ADS-B
Fri 05:47:07 AM 37.0750 -93.3020 308° West 456 525 32,000  Level FlightAware ADS-B
Fri 05:47:41 AM 37.1180 -93.3710 308° West 458 527 32,000  Level FlightAware ADS-B
Fri 05:48:17 AM 37.1650 -93.4490 307° West 458 527 32,000  Level FlightAware ADS-B
Fri 05:48:49 AM 37.2070 -93.5170 308° West 460 529 32,000  Level FlightAware ADS-B
Fri 05:49:26 AM 37.2520 -93.5910 307° West 460 529 32,000  Level FlightAware ADS-B
Fri 05:50:01 AM 37.3000 -93.6690 308° West 458 527 32,000  Level FlightAware ADS-B
Fri 05:50:39 AM 37.3480 -93.7470 308° West 455 524 32,000  Level FlightAware ADS-B
Fri 05:51:11 AM 37.3890 -93.8160 307° West 451 519 32,000  Level FlightAware ADS-B
Fri 05:51:47 AM 37.4340 -93.8910 307° West 450 518 32,000  Level FlightAware ADS-B
Fri 05:52:24 AM 37.4810 -93.9660 308° West 454 522 32,000  Level FlightAware ADS-B
Fri 05:52:55 AM 37.5240 -94.0310 310° West 454 522 32,000  Level FlightAware ADS-B
Fri 05:53:29 AM 37.5740 -94.0930 316° Northwest 454 522 32,000  Level FlightAware ADS-B
Fri 05:54:09 AM 37.6350 -94.1680 316° Northwest 453 521 32,000  Level FlightAware ADS-B
Fri 05:54:41 AM 37.6830 -94.2280 315° West 452 520 32,000  Level FlightAware ADS-B
Fri 05:55:17 AM 37.7360 -94.2950 315° West 451 519 32,000  Level FlightAware ADS-B
Fri 05:55:52 AM 37.7860 -94.3580 315° West 451 519 32,000  Level FlightAware ADS-B
Fri 05:56:29 AM 37.8410 -94.4270 315° West 450 518 32,000  Level FlightAware ADS-B
Fri 05:57:01 AM 37.8900 -94.4890 315° West 451 519 32,000  Level FlightAware ADS-B
Fri 05:57:37 AM 37.9420 -94.5550 315° West 451 519 32,000  Level FlightAware ADS-B
Fri 05:58:13 AM 37.9950 -94.6240 314° West 453 521 32,000  Level FlightAware ADS-B
Fri 05:58:45 AM 38.0430 -94.6850 315° West 453 521 32,000  Level FlightAware ADS-B
Fri 05:59:21 AM 38.0940 -94.7490 315° West 453 521 32,000  Level FlightAware ADS-B
Fri 05:59:57 AM 38.1450 -94.8170 314° West 452 520 32,000  Level FlightAware ADS-B
Fri 06:00:31 AM 38.1990 -94.8850 315° West 449 517 32,000  Level FlightAware ADS-B
Fri 06:01:08 AM 38.2520 -94.9520 315° West 447 514 32,000  Level FlightAware ADS-B
Fri 06:01:41 AM 38.3000 -95.0160 314° West 446 513 32,000  Level FlightAware ADS-B
Fri 06:02:17 AM 38.3530 -95.0840 315° West 447 514 32,000  Level FlightAware ADS-B
Fri 06:02:53 AM 38.4050 -95.1520 314° West 449 517 32,000  Level FlightAware ADS-B
Fri 06:03:29 AM 38.4580 -95.2200 315° West 449 517 32,000  Level FlightAware ADS-B
Fri 06:04:01 AM 38.5040 -95.2800 314° West 449 517 32,000  Level FlightAware ADS-B
Fri 06:04:37 AM 38.5570 -95.3490 314° West 451 519 32,000  Level FlightAware ADS-B
Fri 06:05:13 AM 38.6090 -95.4170 314° West 451 519 32,000  Level FlightAware ADS-B
Fri 06:05:45 AM 38.6550 -95.4780 314° West 449 517 32,000  Level FlightAware ADS-B
Fri 06:06:21 AM 38.7080 -95.5470 315° West 447 514 32,000  Level FlightAware ADS-B
Fri 06:06:58 AM 38.7600 -95.6150 314° West 446 513 32,000  Level FlightAware ADS-B
Fri 06:07:30 AM 38.8060 -95.6760 314° West 445 512 32,000  Level FlightAware ADS-B
Fri 06:08:08 AM 38.8610 -95.7480 314° West 446 513 32,000  Level FlightAware ADS-B
Fri 06:08:42 AM 38.9090 -95.8110 314° West 448 516 32,000  Level FlightAware ADS-B
Fri 06:09:18 AM 38.9630 -95.8840 314° West 449 517 32,000  Level FlightAware ADS-B
Fri 06:09:54 AM 39.0140 -95.9510 314° West 450 518 32,000  Level FlightAware ADS-B
Fri 06:10:24 AM 39.0580 -96.0110 313° West 451 519 32,000  Level FlightAware ADS-B
Fri 06:11:00 AM 39.1090 -96.0790 314° West 451 519 32,000  Level FlightAware ADS-B
Fri 06:11:34 AM 39.1580 -96.1440 314° West 449 517 32,000  Level FlightAware ADS-B
Fri 06:12:10 AM 39.2110 -96.2160 314° West 449 517 32,000  Level FlightAware ADS-B
Fri 06:12:46 AM 39.2630 -96.2860 314° West 451 519 32,000  Level FlightAware ADS-B
Fri 06:13:22 AM 39.3160 -96.3560 314° West 452 520 32,000  Level FlightAware ADS-B
Fri 06:13:54 AM 39.3630 -96.4180 314° West 451 519 32,000  Level FlightAware ADS-B
Fri 06:14:32 AM 39.4170 -96.4930 313° West 452 520 32,000  Level FlightAware ADS-B
Fri 06:15:08 AM 39.4680 -96.5630 313° West 452 520 32,000  Level FlightAware ADS-B
Fri 06:15:45 AM 39.5200 -96.6340 314° West 452 520 32,000  Level FlightAware ADS-B
Fri 06:16:23 AM 39.4460 -96.5320 133° Southeast 452 520 32,000  Level FlightAware ADS-B
Fri 06:17:00 AM 39.6300 -96.7840 314° West 454 522 32,000  Level FlightAware ADS-B
Fri 06:17:33 AM 39.6780 -96.8490 314° West 455 524 32,000  Level FlightAware ADS-B
Fri 06:18:09 AM 39.7300 -96.9210 313° West 456 525 32,000  Level FlightAware ADS-B
Fri 06:18:44 AM 39.7800 -96.9910 313° West 455 524 32,000  Level FlightAware ADS-B
Fri 06:19:21 AM 39.8330 -97.0640 313° West 454 522 32,000  Level FlightAware ADS-B
Fri 06:19:52 AM 39.8770 -97.1240 314° West 453 521 32,000  Level FlightAware ADS-B
Fri 06:20:30 AM 39.9300 -97.1980 313° West 453 521 32,000  Level FlightAware ADS-B
Fri 06:21:05 AM 39.9820 -97.2700 313° West 455 524 32,000  Level FlightAware ADS-B
Fri 06:21:37 AM 40.0300 -97.3360 314° West 455 524 32,000  Level FlightAware ADS-B
Fri 06:22:14 AM 40.0830 -97.4100 313° West 455 524 32,000  Level FlightAware ADS-B
Fri 06:22:51 AM 40.1280 -97.4730 313° West 455 524 32,000  Level FlightAware ADS-B
Fri 06:23:23 AM 40.1770 -97.5430 313° West 453 521 32,000  Level FlightAware ADS-B
Fri 06:24:04 AM 40.2300 -97.6180 313° West 453 521 32,000  Level FlightAware ADS-B
Fri 06:24:43 AM 40.2960 -97.7090 314° West 452 520 32,000  Level FlightAware ADS-B
Fri 06:25:14 AM 40.3390 -97.7700 313° West 452 520 32,000  Level FlightAware ADS-B
Fri 06:25:45 AM 40.3830 -97.8320 313° West 452 520 32,000  Level FlightAware ADS-B
Fri 06:26:23 AM 40.4380 -97.9110 312° West 453 521 32,000  Level FlightAware ADS-B
Fri 06:27:06 AM 40.5000 -97.9980 313° West 453 521 32,000  Level FlightAware ADS-B
Fri 06:27:42 AM 40.5520 -98.0650 316° Northwest 453 521 32,000  Level FlightAware ADS-B
Fri 06:28:17 AM 40.6010 -98.1260 317° Northwest 452 520 32,000  Level FlightAware ADS-B
Fri 06:28:47 AM 40.6490 -98.1860 317° Northwest 452 520 32,000  Level FlightAware ADS-B
Fri 06:29:33 AM 40.7210 -98.2750 317° Northwest 452 520 32,000  Level FlightAware ADS-B
Fri 06:30:13 AM 40.7720 -98.3400 316° Northwest 452 520 32,000  Level FlightAware ADS-B
Fri 06:31:06 AM 40.8610 -98.4510 317° Northwest 453 521 32,000  Level FlightAware ADS-B
Fri 06:31:45 AM 40.8960 -98.4970 315° West 453 521 32,000  Level FlightAware ADS-B
Fri 06:32:21 AM 40.9420 -98.5560 316° Northwest 453 521 32,000  Level FlightAware ADS-B
Fri 06:32:50 AM 41.0140 -98.6450 317° Northwest 32,000  Level FlightAware ADS-B
Fri 06:33:38 AM 41.0810 -98.7310 316° Northwest 453 521 32,000  Level FlightAware ADS-B
Fri 06:34:14 AM 41.1280 -98.7910 316° Northwest 453 521 32,000  Level FlightAware ADS-B
Fri 06:34:50 AM 41.1740 -98.8500 316° Northwest 453 521 32,000  Level FlightAware ADS-B
Fri 06:35:26 AM 41.2200 -98.9090 316° Northwest 453 521 32,000  Level FlightAware ADS-B
Fri 06:36:02 AM 41.2660 -98.9680 316° Northwest 453 521 32,000  Level FlightAware ADS-B
Fri 06:36:38 AM 41.3120 -99.0270 316° Northwest 453 521 32,000  Level FlightAware ADS-B
Fri 06:37:14 AM 41.3580 -99.0870 316° Northwest 453 521 32,000  Level FlightAware ADS-B
Fri 06:37:50 AM 41.4040 -99.1460 316° Northwest 453 521 32,000  Level FlightAware ADS-B
Fri 06:38:26 AM 41.4500 -99.2060 316° Northwest 453 521 32,000  Level FlightAware ADS-B
Fri 06:39:02 AM 41.4970 -99.2650 317° Northwest 453 521 32,000  Level FlightAware ADS-B
Fri 06:39:39 AM 41.5440 -99.3260 316° Northwest 453 521 32,000  Level FlightAware ADS-B
Fri 06:40:16 AM 41.5910 -99.3870 316° Northwest 453 521 32,000  Level FlightAware ADS-B
Fri 06:40:52 AM 41.6370 -99.4470 316° Northwest 453 521 32,000  Level FlightAware ADS-B
Fri 06:41:28 AM 41.6840 -99.5070 316° Northwest 453 521 32,000  Level FlightAware ADS-B
Fri 06:42:05 AM 41.7310 -99.5680 316° Northwest 453 521 32,000  Level FlightAware ADS-B
Fri 06:43:17 AM 41.9472 -99.8594 316° Northwest 445 512 32,000  Level Minneapolis Center
Fri 06:44:18 AM 42.0356 -99.9767 315° West 446 513 32,000  Level Minneapolis Center
Fri 06:45:18 AM 42.1222 -100.0950 315° West 444 511 32,000  Level Minneapolis Center
Fri 06:46:19 AM 42.2097 -100.2156 314° West 448 516 32,000  Level Minneapolis Center
Fri 06:47:19 AM 42.2983 -100.3319 316° Northwest 446 513 32,000  Level Minneapolis Center
Fri 06:48:19 AM 42.3864 -100.4503 315° West 445 512 32,000  Level Minneapolis Center
Fri 06:49:20 AM 42.4733 -100.5717 314° West 448 516 32,000  Level Minneapolis Center
Fri 06:50:20 AM 42.5614 -100.6883 316° Northwest 445 512 32,000  Level Minneapolis Center
Fri 06:51:21 AM 42.6489 -100.8089 315° West 446 513 32,000  Level Minneapolis Center
Fri 06:52:29 AM 42.7447 -100.9417 315° West 450 518 32,000  Level Denver Center
Fri 06:53:30 AM 42.8258 -101.0514 315° West 443 510 32,000  Level Denver Center
Fri 06:54:30 AM 42.9128 -101.1731 314° West 446 513 32,000  Level Denver Center
Fri 06:55:30 AM 42.9997 -101.2942 314° West 447 514 32,000  Level Denver Center
Fri 06:56:30 AM 43.0867 -101.4153 315° West 446 513 32,000  Level Denver Center
Fri 06:57:30 AM 43.1714 -101.5356 314° West 440 506 32,000  Level Denver Center
Fri 06:58:31 AM 43.2583 -101.6583 314° West 446 513 32,000  Level Denver Center
Fri 06:59:31 AM 43.3439 -101.7792 314° West 443 510 32,000  Level Denver Center
Fri 07:00:31 AM 43.4300 -101.9019 314° West 444 511 32,000  Level Denver Center
Fri 07:01:32 AM 43.5183 -102.0197 316° Northwest 440 506 32,000  Level Denver Center
Fri 07:02:32 AM 43.6281 -102.1167 327° Northwest 446 513 32,000  Level Denver Center
Fri 07:03:32 AM 43.7453 -102.2183 328° Northwest 445 512 32,000  Level Denver Center
Fri 07:04:32 AM 43.8453 -102.3078 327° Northwest 447 514 32,000  Level Denver Center
Fri 07:05:32 AM 43.9383 -102.3922 327° Northwest 450 518 32,000  Level Denver Center
Fri 07:06:33 AM 44.0433 -102.4867 327° Northwest 449 517 32,000  Level Denver Center
Fri 07:07:33 AM 44.1506 -102.5839 327° Northwest 455 524 32,000  Level Denver Center
Fri 07:08:33 AM 44.2561 -102.6803 327° Northwest 453 521 32,000  Level Denver Center
Fri 07:09:33 AM 44.3611 -102.7753 327° Northwest 450 518 32,000  Level Denver Center
Fri 07:10:33 AM 44.4664 -102.8725 327° Northwest 451 519 32,000 50 Level Denver Center
Fri 07:11:33 AM 44.5697 -102.9675 327° Northwest 448 516 32,100 793 Climbing Denver Center
Fri 07:12:34 AM 44.6756 -103.0650 327° Northwest 451 519 33,600 942 Climbing Denver Center
Fri 07:13:34 AM 44.7794 -103.1625 326° Northwest 449 517 34,000 200 Climbing Denver Center
Fri 07:14:34 AM 44.8833 -103.2586 327° Northwest 447 514 34,000  Level Denver Center
Fri 07:15:32 AM 44.9958 -103.3608 327° Northwest 444 511 34,000  Level Salt Lake Center
Fri 07:16:32 AM 45.0942 -103.4536 326° Northwest 441 507 34,000 -50 Level Salt Lake Center
Fri 07:17:32 AM 45.1931 -103.5467 326° Northwest 441 507 33,900  Descending Salt Lake Center
Fri 07:18:32 AM 45.2936 -103.6433 326° Northwest 437 503 34,000 50 Climbing Salt Lake Center
Fri 07:19:32 AM 45.3958 -103.7417 326° Northwest 441 507 34,000  Level Salt Lake Center
Fri 07:20:33 AM 45.4983 -103.8386 326° Northwest 443 510 34,000 -50 Level Salt Lake Center
Fri 07:21:33 AM 45.5994 -103.9375 326° Northwest 441 507 33,900  Descending Salt Lake Center
Fri 07:22:33 AM 45.7006 -104.0344 326° Northwest 439 505 34,000 50 Climbing Salt Lake Center
Fri 07:23:33 AM 45.8033 -104.1350 326° Northwest 445 512 34,000  Level Salt Lake Center
Fri 07:24:33 AM 45.9081 -104.2361 326° Northwest 451 519 34,000  Level Salt Lake Center
Fri 07:25:34 AM 46.0114 -104.3394 325° Northwest 452 520 34,000  Level Salt Lake Center
Fri 07:26:34 AM 46.1158 -104.4414 326° Northwest 454 522 34,000  Level Salt Lake Center
Fri 07:27:34 AM 46.2253 -104.5514 325° Northwest 455 524 34,000  Level Salt Lake Center
Fri 07:28:34 AM 46.3242 -104.6489 326° Northwest 455 524 34,000  Level Salt Lake Center
Fri 07:29:34 AM 46.4281 -104.7525 326° Northwest 453 521 34,000  Level Salt Lake Center
Fri 07:30:35 AM 46.5350 -104.8606 325° Northwest 452 520 34,000  Level Salt Lake Center
Fri 07:31:35 AM 46.6333 -104.9606 325° Northwest 451 519 34,000  Level Salt Lake Center
Fri 07:32:35 AM 46.7350 -105.0650 325° Northwest 449 517 34,000  Level Salt Lake Center
Fri 07:33:35 AM 46.8381 -105.1689 325° Northwest 449 517 34,000  Level Salt Lake Center
Fri 07:34:35 AM 46.9397 -105.2744 325° Northwest 449 517 34,000  Level Salt Lake Center
Fri 07:35:36 AM 47.0414 -105.3806 325° Northwest 449 517 34,000  Level Salt Lake Center
Fri 07:36:36 AM 47.1422 -105.4847 325° Northwest 447 514 34,000 -50 Level Salt Lake Center
Fri 07:37:36 AM 47.2433 -105.5897 325° Northwest 446 513 33,900 -50 Descending Salt Lake Center
Fri 07:38:36 AM 47.3442 -105.6950 325° Northwest 445 512 33,900 50 Level Salt Lake Center
Fri 07:39:37 AM 47.4433 -105.7997 324° Northwest 443 510 34,000 50 Climbing Salt Lake Center
Fri 07:40:37 AM 47.5436 -105.9058 324° Northwest 442 509 34,000 -50 Level Salt Lake Center
Fri 07:41:37 AM 47.6436 -106.0117 325° Northwest 443 510 33,900  Descending Salt Lake Center
Fri 07:42:37 AM 47.7453 -106.1181 325° Northwest 445 512 34,000 50 Climbing Salt Lake Center
Fri 07:43:38 AM 47.8467 -106.2272 324° Northwest 449 517 34,000  Level Salt Lake Center
Fri 07:44:38 AM 47.9475 -106.3347 324° Northwest 447 514 34,000 -50 Level Salt Lake Center
Fri 07:45:38 AM 48.0478 -106.4425 324° Northwest 446 513 33,900  Descending Salt Lake Center
Fri 07:46:38 AM 48.1472 -106.5544 323° Northwest 447 514 34,000 50 Climbing Salt Lake Center
Fri 07:47:39 AM 48.2481 -106.6644 324° Northwest 447 514 34,000 -14 Level Salt Lake Center
Fri 07:53:04 AM 48.6720 -107.1570 324° Northwest 34,000 -17 Level FlightAware ADS-B
Fri 07:53:40 AM 48.8414 -107.3611 324° Northwest 453 521 33,900 -62 Descending Salt Lake Center
Fri 07:54:41 AM 48.9403 -107.4783 322° Northwest 453 521 33,900  Level Salt Lake Center
Fri 07:55:41 AM 49.0392 -107.5978 322° Northwest 453 521 33,900 44 Level Salt Lake Center
Fri 07:56:56 AM 49.1500 -107.7833 312° West 450 518 34,000 44 Climbing Winnipeg Center
Fri 07:57:56 AM 49.2500 -107.9000 323° Northwest 460 529 34,000  Level Winnipeg Center
Fri 08:03:34 AM 49.8340 -108.5740 323° Northwest 34,000  Level FlightAware ADS-B
Fri 08:04:39 AM 49.9380 -108.7050 321° Northwest 34,000  Level FlightAware ADS-B
Fri 08:05:34 AM 50.0320 -108.8250 321° Northwest 457 526 34,000  Level FlightAware ADS-B
Fri 08:06:09 AM 50.0910 -108.9000 321° Northwest 456 525 34,000  Level FlightAware ADS-B
Fri 08:06:44 AM 50.1430 -108.9650 321° Northwest 458 527 34,000  Level FlightAware ADS-B
Fri 08:07:22 AM 50.1960 -109.0340 320° Northwest 458 527 34,000  Level FlightAware ADS-B
Fri 08:08:10 AM 50.2760 -109.1380 320° Northwest 456 525 34,000  Level FlightAware ADS-B
Fri 08:08:46 AM 50.3250 -109.2030 320° Northwest 456 525 34,000  Level FlightAware ADS-B
Fri 08:09:25 AM 50.3790 -109.2730 320° Northwest 456 525 34,000  Level FlightAware ADS-B
Fri 08:10:31 AM 50.5110 -109.4420 321° Northwest 462 532 34,000  Level FlightAware ADS-B
Fri 08:11:10 AM 50.5790 -109.5300 321° Northwest 460 529 34,000  Level FlightAware ADS-B
Fri 08:11:45 AM 50.6410 -109.6110 320° Northwest 457 526 34,000  Level FlightAware ADS-B
Fri 08:12:26 AM 50.7050 -109.6960 320° Northwest 450 518 34,000  Level FlightAware ADS-B
Fri 08:13:05 AM 50.7570 -109.7660 320° Northwest 450 518 34,000  Level FlightAware ADS-B
Fri 08:13:41 AM 50.8050 -109.8320 319° Northwest 450 518 34,000  Level FlightAware ADS-B
Fri 08:14:16 AM 50.8830 -109.9320 321° Northwest 446 513 34,000  Level FlightAware ADS-B
Fri 08:14:45 AM 50.9300 -109.9950 320° Northwest 446 513 34,000  Level FlightAware ADS-B
Fri 08:15:16 AM 50.9810 -110.0560 323° Northwest 453 521 34,000  Level FlightAware ADS-B
Fri 08:16:06 AM 51.0530 -110.1390 324° Northwest 453 521 34,000  Level FlightAware ADS-B
Fri 08:16:37 AM 51.1190 -110.2100 326° Northwest 452 520 34,000  Level FlightAware ADS-B
Fri 08:17:21 AM 51.1940 -110.2950 325° Northwest 452 520 34,000  Level FlightAware ADS-B
Fri 08:18:11 AM 51.2810 -110.3950 324° Northwest 459 528 34,000  Level FlightAware ADS-B
Fri 08:18:49 AM 51.3380 -110.4600 325° Northwest 460 529 34,000  Level FlightAware ADS-B
Fri 08:19:27 AM 51.3940 -110.5250 324° Northwest 460 529 34,000  Level FlightAware ADS-B
Fri 08:20:01 AM 51.4710 -110.6130 325° Northwest 459 528 34,000  Level FlightAware ADS-B
Fri 08:20:37 AM 51.5320 -110.6850 324° Northwest 458 527 34,000  Level FlightAware ADS-B
Fri 08:21:13 AM 51.5920 -110.7550 324° Northwest 456 525 34,000  Level FlightAware ADS-B
Fri 08:21:47 AM 51.6510 -110.8230 324° Northwest 454 522 34,000  Level FlightAware ADS-B
Fri 08:22:22 AM 51.7120 -110.8940 324° Northwest 446 513 34,000  Level FlightAware ADS-B
Fri 08:22:58 AM 51.7690 -110.9620 324° Northwest 446 513 34,000  Level FlightAware ADS-B
Fri 08:23:32 AM 51.8300 -111.0340 324° Northwest 444 511 34,000  Level FlightAware ADS-B
Fri 08:24:07 AM 51.8830 -111.0970 324° Northwest 442 509 34,000  Level FlightAware ADS-B
Fri 08:25:03 AM 51.9800 -111.2120 324° Northwest 444 511 34,000  Level FlightAware ADS-B
Fri 08:26:02 AM 52.0740 -111.3250 324° Northwest 439 505 34,000  Level FlightAware ADS-B
Fri 08:26:37 AM 52.1360 -111.4010 323° Northwest 441 507 34,000  Level FlightAware ADS-B
Fri 08:27:19 AM 52.1940 -111.4720 323° Northwest 441 507 34,000  Level FlightAware ADS-B
Fri 08:27:53 AM 52.2640 -111.5540 324° Northwest 443 510 34,000  Level FlightAware ADS-B
Fri 08:28:23 AM 52.3110 -111.6110 323° Northwest 443 510 34,000  Level FlightAware ADS-B
Fri 08:29:03 AM 52.3790 -111.6940 323° Northwest 444 511 34,000  Level FlightAware ADS-B
Fri 08:29:38 AM 52.4340 -111.7610 323° Northwest 430 495 34,000  Level FlightAware ADS-B
Fri 08:30:13 AM 52.4930 -111.8330 323° Northwest 440 506 34,000  Level FlightAware ADS-B
Fri 08:30:53 AM 52.5600 -111.9160 323° Northwest 440 506 34,000 -480 Level FlightAware ADS-B
Fri 08:31:28 AM 52.6150 -111.9840 323° Northwest 430 495 33,400 -2,143 Descending FlightAware ADS-B
Fri 08:32:03 AM 52.6730 -112.0570 323° Northwest 449 517 31,500 -3,042 Descending FlightAware ADS-B
Fri 08:32:39 AM 52.7330 -112.1320 323° Northwest 447 514 29,800 -2,704 Descending FlightAware ADS-B
Fri 08:33:14 AM 52.7920 -112.2040 324° Northwest 447 514 28,300 -2,657 Descending FlightAware ADS-B
Fri 08:33:49 AM 52.8490 -112.2750 323° Northwest 444 511 26,700 -2,640 Descending FlightAware ADS-B
Fri 08:34:29 AM 52.9140 -112.3590 322° Northwest 438 504 25,000 -2,197 Descending FlightAware ADS-B
Fri 08:35:00 AM 52.9440 -112.4050 317° Northwest 438 504 24,100 -2,182 Descending FlightAware ADS-B
Fri 08:35:35 AM 52.9900 -112.4960 310° West 428 493 22,600 -2,541 Descending FlightAware ADS-B
Fri 08:36:25 AM 53.0370 -112.6330 300° West 416 479 20,500 -1,780 Descending FlightAware ADS-B
Fri 08:37:06 AM 53.0620 -112.7370 292° West 413 475 19,900 -2,727 Descending FlightAware ADS-B
Fri 08:37:20 AM 53.0690 -112.8000 281° West 404 465 18,000 -3,840 Descending FlightAware ADS-B
Fri 08:37:56 AM 53.0810 -112.9020 281° West 392 451 16,700 -2,289 Descending FlightAware ADS-B
Fri 08:38:36 AM 53.1190 -113.0030 302° West 392 451 15,100 -2,240 Descending FlightAware ADS-B
Fri 08:39:11 AM 53.1610 -113.0760 314° West 383 441 13,900 -2,028 Descending FlightAware ADS-B
Fri 08:39:47 AM 53.2040 -113.1520 313° West 371 427 12,700 -1,606 Descending FlightAware ADS-B
Fri 08:40:22 AM 53.2470 -113.2260 314° West 347 399 12,000 -909 Descending FlightAware ADS-B
Fri 08:40:53 AM 53.2770 -113.2790 313° West 326 375 11,700 -987 Descending FlightAware ADS-B
Fri 08:41:41 AM 53.3240 -113.3640 313° West 287 330 10,700 -1,565 Descending FlightAware ADS-B
Fri 08:42:02 AM 53.3410 -113.3950 313° West 281 323 9,900 -2,432 Descending FlightAware ADS-B
Fri 08:42:18 AM 53.3540 -113.4190 312° West 280 322 9,200 -2,333 Descending FlightAware ADS-B
Fri 08:42:38 AM 53.3700 -113.4610 303° West 277 319 8,500 -1,500 Descending FlightAware ADS-B
Fri 08:42:58 AM 53.3800 -113.4950 296° West 275 316 8,200 -833 Descending FlightAware ADS-B
Fri 08:43:14 AM 53.3890 -113.5250 297° West 267 307 8,000 -1,350 Descending FlightAware ADS-B
Fri 08:43:38 AM 53.4080 -113.5920 295° West 235 270 7,300 -1,440 Descending FlightAware ADS-B
Fri 08:44:04 AM 53.4190 -113.6280 297° West 229 264 6,800 -1,174 Descending FlightAware ADS-B
Fri 08:44:24 AM 53.4300 -113.6630 298° West 217 250 6,400 -1,154 Descending FlightAware ADS-B
Fri 08:44:56 AM 53.4430 -113.7090 295° West 219 252 5,800 -1,179 Descending FlightAware ADS-B
Fri 08:45:20 AM 53.4530 -113.7470 294° West 215 247 5,300 -857 Descending FlightAware ADS-B
Fri 08:45:45 AM 53.4520 -113.7700 266° West 212 244 5,100 -600 Descending FlightAware ADS-B
Fri 08:45:50 AM 53.4490 -113.7770 234° Southwest 210 242 5,000 -600 Descending FlightAware ADS-B
Fri 08:45:55 AM 53.4470 -113.7810 230° Southwest 208 239 5,000 -1,200 Level FlightAware ADS-B
Fri 08:46:05 AM 53.4370 -113.7910 211° Southwest 205 236 4,700 -1,600 Descending FlightAware ADS-B
Fri 08:46:10 AM 53.4340 -113.7920 191° South 202 232 4,600 -200 Descending FlightAware ADS-B
Fri 08:46:35 AM 53.4140 -113.8000 193° South 202 232 4,600 -906 Level FlightAware ADS-B
Fri 08:47:03 AM 53.4020 -113.7570 115° Southeast 194 223 3,800 -774 Descending FlightAware ADS-B
Fri 08:47:37 AM 53.3770 -113.7140 134° Southeast 180 207 3,800  Level FlightAware ADS-B
Fri 08:47:57 AM 53.3650 -113.6960 138° Southeast 176 203 3,800 -327 Level FlightAware ADS-B
Fri 08:48:32 AM 53.3460 -113.6620 133° Southeast 165 190 3,500 -545 Descending FlightAware ADS-B
Fri 08:48:52 AM 53.3360 -113.6460 136° Southeast 151 174 3,300 -360 Descending FlightAware ADS-B
Fri 08:49:22 AM 53.3230 -113.6240 135° Southeast 148 170 3,200 -930 Descending FlightAware ADS-B
Fri 08:50:03 AM 53.2667 -113.6000 135° Southeast 150 173 2,200 -475 Descending Edmonton Center
Fri 08:51:03 AM 53.2667 -113.6000 135° Southeast 20 23 2,400 200 Climbing Edmonton Center

Login

Don't have an account? Register now (free) for customized features, flight alerts, and more!